Time;durP1;ratioP1;P1;durP2;ratioP2;P2;SDS_P1;SDS_P2;PMS_P1;PMS_P2;Temp;Humidity;BMP_temperature;BMP_pressure;BME280_temperature;BME280_humidity;BME280_pressure;Samples;Min_cycle;Max_cycle;Signal;HPM_P1;HPM_P2
2021/12/12 00:01:34;;;;;;;9.57;4.10;;;;;;;11.95;100.00;98112.31;5031175;28;20310;-63
2021/12/12 00:04:11;;;;;;;7.43;4.23;;;;;;;11.88;100.00;98118.78;5030955;28;20198;-63
2021/12/12 00:06:42;;;;;;;14.23;4.43;;;;;;;11.80;100.00;98100.19;5031245;28;20749;-65
2021/12/12 00:09:12;;;;;;;12.87;4.70;;;;;;;11.83;100.00;98108.66;5031763;28;20248;-66
2021/12/12 00:11:42;;;;;;;16.73;5.03;;;;;;;11.82;100.00;98113.94;5031298;28;20240;-66
2021/12/12 00:14:13;;;;;;;15.47;4.80;;;;;;;11.79;100.00;98086.34;5030961;28;20225;-66
2021/12/12 00:16:42;;;;;;;13.27;5.73;;;;;;;11.78;100.00;98052.63;5030684;28;20209;-65
2021/12/12 00:19:09;;;;;;;18.03;5.47;;;;;;;11.87;100.00;98057.31;5030782;28;20205;-62
2021/12/12 00:21:38;;;;;;;16.97;6.47;;;;;;;11.89;100.00;98027.69;5030652;28;20232;-62
2021/12/12 00:24:07;;;;;;;12.17;5.17;;;;;;;11.88;100.00;97981.00;5030887;28;20284;-62
2021/12/12 00:26:34;;;;;;;15.70;6.63;;;;;;;11.84;100.00;97948.31;5030739;28;20201;-63
2021/12/12 00:29:03;;;;;;;12.20;4.77;;;;;;;11.88;100.00;97948.03;5030532;28;20205;-63
2021/12/12 00:31:30;;;;;;;9.20;4.33;;;;;;;11.81;100.00;97928.53;5030601;28;20193;-65
2021/12/12 00:33:59;;;;;;;17.83;4.50;;;;;;;11.79;100.00;97955.53;5030693;28;20264;-65
2021/12/12 00:36:28;;;;;;;11.30;4.53;;;;;;;11.99;100.00;97984.63;5030623;28;20279;-66
2021/12/12 00:38:59;;;;;;;9.00;3.30;;;;;;;11.97;100.00;97990.84;5030486;28;20205;-62
2021/12/12 00:41:29;;;;;;;8.33;4.00;;;;;;;11.90;100.00;97994.75;5030341;28;20724;-66
2021/12/12 00:43:56;;;;;;;11.40;4.07;;;;;;;11.87;100.00;98016.56;5030978;28;20200;-63
2021/12/12 00:46:25;;;;;;;8.20;3.90;;;;;;;11.82;100.00;98033.34;5030353;28;20284;-61
2021/12/12 00:48:54;;;;;;;7.43;3.60;;;;;;;11.75;100.00;98050.16;5030404;28;20268;-62
2021/12/12 00:51:27;;;;;;;12.67;3.87;;;;;;;11.69;100.00;98069.56;5030385;28;20223;-61
2021/12/12 00:53:55;;;;;;;11.50;3.80;;;;;;;11.73;100.00;98070.25;5030367;28;20288;-61
2021/12/12 00:56:22;;;;;;;7.30;3.77;;;;;;;11.82;100.00;98067.16;5029921;28;20593;-62
2021/12/12 00:58:49;;;;;;;14.27;3.93;;;;;;;11.95;100.00;98065.53;5030434;28;20200;-64
2021/12/12 01:01:22;;;;;;;7.73;4.80;;;;;;;11.93;100.00;98067.38;5030227;28;20205;-61
2021/12/12 01:03:54;;;;;;;15.37;4.90;;;;;;;11.82;100.00;98080.97;5030420;28;20723;-62
2021/12/12 01:06:22;;;;;;;16.60;5.00;;;;;;;11.73;100.00;98091.88;5030184;28;20579;-61
2021/12/12 01:08:52;;;;;;;9.20;4.83;;;;;;;11.68;100.00;98067.88;5030063;28;20225;-62
2021/12/12 01:11:22;;;;;;;14.53;5.20;;;;;;;11.71;100.00;98035.69;5029890;28;20201;-62
2021/12/12 01:13:50;;;;;;;6.13;3.73;;;;;;;11.70;100.00;98036.63;5029855;28;20225;-62
2021/12/12 01:16:23;;;;;;;8.53;3.70;;;;;;;11.70;100.00;98076.44;5030001;28;20205;-62
2021/12/12 01:18:55;;;;;;;11.70;4.43;;;;;;;11.57;100.00;98098.84;5030058;28;20233;-62
2021/12/12 01:21:28;;;;;;;8.63;4.77;;;;;;;11.49;100.00;98114.84;5030214;28;20738;-62
2021/12/12 01:23:59;;;;;;;11.70;4.20;;;;;;;11.50;100.00;98123.50;5030129;28;20221;-62
2021/12/12 01:26:28;;;;;;;10.07;4.67;;;;;;;11.46;100.00;98112.41;5030241;28;20279;-62
2021/12/12 01:28:57;;;;;;;7.03;3.70;;;;;;;11.63;100.00;98116.66;5030066;28;20582;-65
2021/12/12 01:31:31;;;;;;;6.27;3.23;;;;;;;11.53;100.00;98129.34;5029679;28;20204;-65
2021/12/12 01:34:10;;;;;;;7.43;4.07;;;;;;;11.30;100.00;98108.97;5030067;28;20232;-65
2021/12/12 01:36:49;;;;;;;7.83;3.77;;;;;;;11.41;100.00;98158.56;5030027;28;20223;-65
2021/12/12 01:39:21;;;;;;;6.60;3.50;;;;;;;11.26;100.00;98147.25;5030012;28;20193;-62
2021/12/12 01:41:54;;;;;;;6.80;3.10;;;;;;;11.28;100.00;98136.81;5029824;28;20197;-63
2021/12/12 01:44:26;;;;;;;7.20;3.00;;;;;;;11.34;100.00;98153.78;5029891;28;20586;-65
2021/12/12 01:47:00;;;;;;;6.20;2.90;;;;;;;11.37;100.00;98154.47;5029924;28;20208;-64
2021/12/12 01:49:30;;;;;;;3.37;2.03;;;;;;;11.37;100.00;98154.47;5030199;28;20201;-64
2021/12/12 01:51:58;;;;;;;5.40;2.20;;;;;;;11.47;100.00;98160.84;5029872;28;20284;-64
2021/12/12 01:54:29;;;;;;;6.97;2.00;;;;;;;11.53;100.00;98157.91;5029695;28;20292;-61
2021/12/12 01:56:59;;;;;;;2.97;2.50;;;;;;;11.53;100.00;98168.31;5030066;28;20625;-63
2021/12/12 01:59:31;;;;;;;1.80;1.47;;;;;;;11.48;100.00;98170.34;5029967;28;20304;-62
2021/12/12 02:02:01;;;;;;;2.30;1.30;;;;;;;11.33;100.00;98139.13;5029789;28;20681;-65
2021/12/12 02:04:33;;;;;;;1.07;1.00;;;;;;;11.75;100.00;98173.22;5029760;28;20232;-62
2021/12/12 02:07:01;;;;;;;2.40;1.67;;;;;;;11.75;100.00;98183.59;5029770;28;20208;-62
2021/12/12 02:09:29;;;;;;;6.00;2.90;;;;;;;11.77;100.00;98180.91;5031979;28;20587;-66
2021/12/12 02:11:58;;;;;;;2.43;1.17;;;;;;;11.71;100.00;98192.47;5033397;28;20668;-65
2021/12/12 02:14:29;;;;;;;0.97;0.87;;;;;;;11.68;100.00;98184.00;5032940;28;20728;-62
2021/12/12 02:16:59;;;;;;;1.37;1.27;;;;;;;11.66;100.00;98184.06;5033160;28;20201;-62
2021/12/12 02:19:35;;;;;;;1.37;1.20;;;;;;;11.85;100.00;98183.97;5033233;28;20201;-62
2021/12/12 02:22:17;;;;;;;1.83;1.23;;;;;;;11.74;100.00;98171.50;5032941;28;20201;-65
2021/12/12 02:35:44;;;;;;;1.90;1.10;;;;;;;11.48;100.00;98180.72;5032836;28;20208;-61
2021/12/12 02:38:14;;;;;;;2.63;1.50;;;;;;;11.38;100.00;98170.91;5032476;28;20589;-61
2021/12/12 02:40:46;;;;;;;1.83;1.73;;;;;;;11.19;100.00;98160.63;5032627;28;20204;-64
2021/12/12 02:43:18;;;;;;;1.23;1.20;;;;;;;11.18;100.00;98175.38;5032821;28;20705;-64
2021/12/12 02:45:45;;;;;;;0.97;0.97;;;;;;;11.12;100.00;98178.31;5032755;28;20724;-65
2021/12/12 02:48:17;;;;;;;1.30;1.20;;;;;;;11.04;100.00;98183.06;5032394;28;20194;-65
2021/12/12 02:50:49;;;;;;;1.20;1.20;;;;;;;10.89;100.00;98189.88;5032594;28;20197;-65
2021/12/12 02:53:21;;;;;;;2.57;1.57;;;;;;;10.83;100.00;98185.03;5032745;28;20281;-64
2021/12/12 02:55:55;;;;;;;2.20;1.70;;;;;;;10.76;100.00;98195.75;5032478;28;20201;-64
2021/12/12 02:58:23;;;;;;;2.00;1.90;;;;;;;10.66;100.00;98195.41;5032326;28;20283;-64
2021/12/12 03:00:58;;;;;;;6.03;1.60;;;;;;;10.66;100.00;98199.75;5032460;28;20208;-64
2021/12/12 03:03:27;;;;;;;2.13;1.60;;;;;;;10.48;100.00;98180.75;5032135;28;20614;-64
2021/12/12 03:05:54;;;;;;;2.07;1.37;;;;;;;10.76;100.00;98199.22;5032370;28;20633;-64
2021/12/12 03:08:21;;;;;;;2.63;1.60;;;;;;;10.62;100.00;98204.25;5032117;28;20212;-65
2021/12/12 03:10:52;;;;;;;2.33;1.53;;;;;;;10.66;100.00;98210.13;5032134;28;20199;-64
2021/12/12 03:13:20;;;;;;;1.87;1.73;;;;;;;10.58;100.00;98210.50;5032191;28;20320;-65
2021/12/12 03:15:48;;;;;;;1.90;1.80;;;;;;;10.73;100.00;98217.50;5031969;28;20197;-64
2021/12/12 03:18:20;;;;;;;3.00;2.10;;;;;;;10.70;100.00;98212.50;5032271;28;20193;-64
2021/12/12 03:20:51;;;;;;;5.70;3.10;;;;;;;10.78;100.00;98225.91;5031956;28;20237;-64
2021/12/12 03:23:20;;;;;;;7.43;4.53;;;;;;;10.73;100.00;98238.28;5031853;28;20699;-62
2021/12/12 03:25:52;;;;;;;8.30;7.50;;;;;;;10.49;100.00;98236.91;5031840;28;20571;-62
2021/12/12 03:28:23;;;;;;;10.40;7.07;;;;;;;10.48;100.00;98237.81;5031631;28;20638;-62
2021/12/12 03:30:54;;;;;;;9.60;6.33;;;;;;;10.37;100.00;98232.31;5031639;28;20197;-62
2021/12/12 03:33:22;;;;;;;7.13;5.07;;;;;;;10.40;100.00;98234.75;5031575;28;20288;-62
2021/12/12 03:35:51;;;;;;;9.83;7.60;;;;;;;10.30;100.00;98246.47;5031760;28;20205;-62
2021/12/12 03:38:18;;;;;;;9.03;7.80;;;;;;;10.23;100.00;98253.72;5031523;28;20207;-62
2021/12/12 03:40:46;;;;;;;13.37;9.10;;;;;;;10.17;100.00;98252.22;5031382;28;20752;-62
2021/12/12 03:43:16;;;;;;;10.73;8.50;;;;;;;10.04;100.00;98269.28;5031534;28;20672;-62
2021/12/12 03:45:45;;;;;;;18.83;9.13;;;;;;;9.91;100.00;98273.34;5031538;28;20816;-62
2021/12/12 03:48:18;;;;;;;9.80;8.77;;;;;;;9.95;100.00;98274.84;5031351;28;20215;-62
2021/12/12 03:50:47;;;;;;;9.70;7.60;;;;;;;9.97;100.00;98277.38;5031204;28;20208;-62
2021/12/12 03:53:14;;;;;;;8.23;6.67;;;;;;;10.01;100.00;98268.56;5031123;28;20189;-62
2021/12/12 03:55:43;;;;;;;9.30;6.63;;;;;;;9.96;100.00;98261.00;5031205;28;20203;-62
2021/12/12 03:58:11;;;;;;;7.50;6.70;;;;;;;9.84;100.00;98244.25;5031092;28;20284;-62
2021/12/12 04:00:45;;;;;;;7.77;6.90;;;;;;;9.91;100.00;98283.72;5031147;28;20197;-62
2021/12/12 04:03:13;;;;;;;13.53;7.63;;;;;;;9.92;100.00;98290.56;5030974;28;20632;-62
2021/12/12 04:05:40;;;;;;;6.53;5.93;;;;;;;9.92;100.00;98289.72;5031005;28;20201;-62
2021/12/12 04:08:07;;;;;;;6.77;5.77;;;;;;;9.91;100.00;98277.69;5031145;28;20292;-65
2021/12/12 04:10:34;;;;;;;8.07;6.13;;;;;;;9.60;100.00;98232.41;5031315;28;20696;-65
2021/12/12 04:13:02;;;;;;;7.87;5.23;;;;;;;10.09;100.00;98295.81;5031306;28;20225;-64
2021/12/12 04:15:29;;;;;;;8.70;6.23;;;;;;;9.98;100.00;98305.84;5031153;28;20205;-63
2021/12/12 04:17:58;;;;;;;8.63;7.50;;;;;;;9.86;100.00;98311.56;5030889;28;20284;-65
2021/12/12 04:20:29;;;;;;;13.53;9.43;;;;;;;9.69;100.00;98290.78;5030839;28;20752;-65
2021/12/12 04:22:56;;;;;;;15.23;8.40;;;;;;;9.69;100.00;98299.38;5031089;28;20229;-65
2021/12/12 04:25:24;;;;;;;9.93;8.20;;;;;;;9.74;100.00;98296.56;5030871;28;20203;-65
2021/12/12 04:27:53;;;;;;;14.67;7.53;;;;;;;9.80;100.00;98311.84;5031060;28;20201;-64
2021/12/12 04:30:23;;;;;;;9.60;7.80;;;;;;;9.64;100.00;98313.44;5030725;28;20194;-64
2021/12/12 04:32:52;;;;;;;11.67;7.50;;;;;;;9.58;100.00;98306.78;5030378;28;20703;-64
2021/12/12 04:35:22;;;;;;;13.33;7.77;;;;;;;9.62;100.00;98294.53;5030750;28;20280;-64
2021/12/12 04:37:50;;;;;;;14.50;7.33;;;;;;;9.67;100.00;98296.00;5030746;28;20209;-61
2021/12/12 04:40:21;;;;;;;9.10;7.70;;;;;;;9.64;100.00;98298.72;5029940;28;20280;-61
2021/12/12 04:42:52;;;;;;;13.43;7.83;;;;;;;9.42;100.00;98275.53;5030347;28;20585;-60
2021/12/12 04:45:35;;;;;;;11.53;7.43;;;;;;;9.53;100.00;98320.84;5027020;28;20206;-62
2021/12/12 04:50:56;;;;;;;29.60;19.30;;;;;;;9.40;100.00;98323.94;5010115;28;20198;-62
2021/12/12 04:53:26;;;;;;;21.67;12.60;;;;;;;9.48;100.00;98343.53;5011969;28;20655;-61
2021/12/12 04:55:58;;;;;;;30.63;18.70;;;;;;;9.41;100.00;98361.91;5029362;28;20227;-60
2021/12/12 04:58:36;;;;;;;24.23;16.23;;;;;;;9.28;100.00;98354.69;5029668;28;20276;-60
2021/12/12 05:01:07;;;;;;;18.40;12.33;;;;;;;9.34;100.00;98381.19;5029360;28;20229;-61
2021/12/12 05:03:42;;;;;;;17.77;12.30;;;;;;;9.32;100.00;98383.00;5028451;28;20235;-62
2021/12/12 05:06:16;;;;;;;15.83;11.33;;;;;;;9.36;100.00;98376.81;5029284;28;20221;-62
2021/12/12 05:08:49;;;;;;;12.37;9.37;;;;;;;9.37;100.00;98390.56;5030107;28;20225;-62
2021/12/12 05:11:22;;;;;;;14.77;9.70;;;;;;;9.34;100.00;98394.16;5029855;28;20221;-62
2021/12/12 05:13:52;;;;;;;31.27;20.50;;;;;;;9.45;100.00;98393.69;5029557;28;20239;-62
2021/12/12 05:16:25;;;;;;;18.17;13.30;;;;;;;9.40;100.00;98399.06;5029662;28;20283;-61
2021/12/12 05:19:01;;;;;;;19.60;13.23;;;;;;;9.43;100.00;98391.16;5029447;28;20320;-61
2021/12/12 05:21:34;;;;;;;17.43;12.70;;;;;;;9.45;100.00;98399.72;5035581;28;20689;-62
2021/12/12 05:24:07;;;;;;;15.10;11.30;;;;;;;9.45;100.00;98396.28;5042482;28;20231;-62
2021/12/12 05:26:37;;;;;;;14.10;9.27;;;;;;;9.40;100.00;98400.78;5034719;28;20234;-61
2021/12/12 05:29:08;;;;;;;7.33;6.57;;;;;;;9.30;100.00;98410.69;5038140;28;20224;-62
2021/12/12 05:31:36;;;;;;;6.93;5.20;;;;;;;9.38;100.00;98418.13;5037035;28;20230;-62
2021/12/12 05:34:03;;;;;;;5.17;4.27;;;;;;;9.28;100.00;98414.25;5036075;28;20291;-63
2021/12/12 05:36:34;;;;;;;8.03;4.27;;;;;;;9.26;100.00;98424.66;5035883;28;20221;-64
2021/12/12 05:39:04;;;;;;;4.63;4.23;;;;;;;9.29;100.00;98414.19;5045634;28;20598;-63
2021/12/12 05:41:32;;;;;;;5.43;3.80;;;;;;;9.25;100.00;98428.19;5040387;28;20343;-63
2021/12/12 05:44:03;;;;;;;5.70;4.67;;;;;;;9.20;100.00;98427.53;5036453;28;20224;-63
2021/12/12 05:46:30;;;;;;;4.93;3.30;;;;;;;9.10;100.00;98431.38;5046629;28;20220;-66
2021/12/12 05:48:59;;;;;;;7.23;6.63;;;;;;;9.29;100.00;98445.25;5046989;28;20243;-64
2021/12/12 05:51:29;;;;;;;10.73;8.80;;;;;;;9.21;100.00;98447.31;5040094;28;20229;-65
2021/12/12 05:53:57;;;;;;;13.87;10.10;;;;;;;9.09;100.00;98450.41;5043039;28;20231;-65
2021/12/12 05:56:25;;;;;;;12.77;10.10;;;;;;;9.01;100.00;98460.22;5041594;28;20228;-65
2021/12/12 05:58:52;;;;;;;15.37;11.23;;;;;;;9.00;100.00;98479.25;5044150;28;20775;-62
2021/12/12 06:01:21;;;;;;;15.67;12.43;;;;;;;8.64;100.00;98415.06;5040170;28;20612;-63
2021/12/12 06:03:49;;;;;;;11.67;9.17;;;;;;;8.97;100.00;98476.75;5032636;28;20225;-65
2021/12/12 06:06:20;;;;;;;13.13;9.10;;;;;;;8.99;100.00;98480.13;5033691;28;20217;-61
2021/12/12 06:08:49;;;;;;;12.47;10.77;;;;;;;9.01;100.00;98486.94;5045008;28;20227;-60
2021/12/12 06:11:22;;;;;;;15.03;9.97;;;;;;;9.01;100.00;98488.69;5040808;28;20231;-59
2021/12/12 06:13:49;;;;;;;12.57;9.47;;;;;;;8.68;100.00;98450.28;5031940;28;20232;-60
2021/12/12 06:16:19;;;;;;;13.20;9.80;;;;;;;8.89;100.00;98499.50;5032291;28;20220;-66
2021/12/12 06:18:48;;;;;;;13.73;9.90;;;;;;;8.85;100.00;98485.84;5033049;28;20731;-67
2021/12/12 06:21:16;;;;;;;11.03;9.93;;;;;;;9.03;100.00;98510.16;5032072;28;20217;-65
2021/12/12 06:23:45;;;;;;;11.57;10.37;;;;;;;9.13;100.00;98519.28;5032510;28;20541;-59
2021/12/12 06:26:12;;;;;;;14.70;11.20;;;;;;;9.14;100.00;98513.19;5031366;28;20271;-59
2021/12/12 06:28:42;;;;;;;16.53;13.07;;;;;;;9.27;100.00;98527.31;5031782;28;20225;-59
2021/12/12 06:31:10;;;;;;;14.07;11.17;;;;;;;9.28;100.00;98529.00;5031442;28;20229;-59
2021/12/12 06:33:39;;;;;;;14.70;8.97;;;;;;;9.38;100.00;98538.09;5031480;28;20747;-60
2021/12/12 06:36:16;;;;;;;9.80;7.83;;;;;;;9.44;100.00;98542.22;5031718;28;20230;-64
2021/12/12 06:38:47;;;;;;;7.77;6.40;;;;;;;9.52;100.00;98547.09;5032763;28;20796;-65
2021/12/12 06:41:15;;;;;;;7.23;6.63;;;;;;;9.57;100.00;98550.34;5031220;28;20676;-64
2021/12/12 06:43:44;;;;;;;10.03;7.20;;;;;;;9.49;100.00;98548.03;5032951;28;20229;-65
2021/12/12 06:46:12;;;;;;;9.23;5.83;;;;;;;9.59;100.00;98558.91;5031141;28;20596;-60
2021/12/12 06:48:41;;;;;;;9.77;7.40;;;;;;;9.62;100.00;98569.97;5030641;28;20301;-59
2021/12/12 06:51:09;;;;;;;4.73;4.33;;;;;;;9.71;100.00;98573.94;5030721;28;20312;-58
2021/12/12 06:53:39;;;;;;;6.73;4.60;;;;;;;9.83;100.00;98582.06;5051604;28;20221;-60
2021/12/12 06:56:08;;;;;;;6.67;5.70;;;;;;;9.96;100.00;98576.38;5035279;28;20395;-61
2021/12/12 06:58:35;;;;;;;12.57;5.57;;;;;;;10.01;100.00;98585.66;5044602;28;20231;-59
2021/12/12 07:01:08;;;;;;;6.53;5.07;;;;;;;10.06;100.00;98586.28;5050324;28;20590;-59
2021/12/12 07:03:36;;;;;;;18.50;13.70;;;;;;;9.97;100.00;98552.97;5042952;28;20262;-59
2021/12/12 07:06:04;;;;;;;9.60;7.30;;;;;;;10.15;100.00;98583.34;5037496;28;20227;-58
2021/12/12 07:08:31;;;;;;;5.47;4.97;;;;;;;10.24;100.00;98581.28;5035411;28;20308;-59
2021/12/12 07:10:59;;;;;;;8.97;6.27;;;;;;;10.25;100.00;98581.22;5033984;28;20311;-61
2021/12/12 07:13:26;;;;;;;7.47;6.77;;;;;;;9.87;100.00;98530.94;5040651;28;20240;-61
2021/12/12 07:15:56;;;;;;;10.97;9.80;;;;;;;10.31;100.00;98595.66;5050521;28;20220;-62
2021/12/12 07:18:27;;;;;;;6.73;3.57;;;;;;;10.22;100.00;98599.50;5036749;28;20221;-61
2021/12/12 07:20:57;;;;;;;5.83;2.90;;;;;;;10.18;100.00;98596.19;5029067;28;20217;-63
2021/12/12 07:23:24;;;;;;;4.43;3.30;;;;;;;10.21;100.00;98594.38;5044261;28;20240;-62
2021/12/12 07:25:52;;;;;;;7.07;5.73;;;;;;;10.11;100.00;98573.16;5035930;28;20312;-65
2021/12/12 07:28:20;;;;;;;9.53;7.20;;;;;;;10.26;100.00;98593.28;5030474;28;20308;-65
2021/12/12 07:30:47;;;;;;;17.10;10.47;;;;;;;10.27;100.00;98581.16;5032465;28;20305;-65
2021/12/12 07:33:15;;;;;;;16.47;11.80;;;;;;;10.47;100.00;98617.47;5030621;28;20224;-61
2021/12/12 07:35:45;;;;;;;14.53;10.20;;;;;;;10.53;100.00;98624.97;5030808;28;20225;-61
2021/12/12 07:38:16;;;;;;;9.13;7.90;;;;;;;10.59;100.00;98637.72;5030807;28;20316;-62
2021/12/12 07:40:44;;;;;;;15.90;9.03;;;;;;;10.41;100.00;98610.78;5032752;28;20235;-62
2021/12/12 07:43:12;;;;;;;11.30;9.00;;;;;;;10.60;100.00;98636.81;5029917;28;20224;-62
2021/12/12 07:45:39;;;;;;;10.73;6.27;;;;;;;10.70;100.00;98640.69;5030242;28;20228;-65
2021/12/12 07:48:09;;;;;;;19.50;5.93;;;;;;;10.72;100.00;98651.81;5030514;28;20308;-64
2021/12/12 07:50:38;;;;;;;6.33;4.63;;;;;;;10.70;100.00;98653.66;5030593;28;20240;-65
2021/12/12 07:53:07;;;;;;;13.90;10.30;;;;;;;10.83;100.00;98653.97;5042593;28;20232;-65
2021/12/12 07:55:34;;;;;;;13.60;8.47;;;;;;;10.89;100.00;98659.72;5050925;28;20339;-65
2021/12/12 07:58:06;;;;;;;7.17;5.83;;;;;;;10.80;100.00;98638.53;5038116;28;20218;-65
2021/12/12 08:00:33;;;;;;;8.33;7.20;;;;;;;10.96;100.00;98662.03;5030757;28;20280;-65
2021/12/12 08:03:04;;;;;;;8.90;6.17;;;;;;;11.02;100.00;98674.78;5031006;28;20596;-65
2021/12/12 08:05:31;;;;;;;6.87;4.77;;;;;;;11.04;100.00;98685.94;5030380;28;20227;-65
2021/12/12 08:08:00;;;;;;;7.83;4.90;;;;;;;11.17;100.00;98687.09;5030268;28;20205;-61
2021/12/12 08:10:29;;;;;;;15.93;9.93;;;;;;;11.32;100.00;98698.53;5030690;28;20201;-63
2021/12/12 08:12:56;;;;;;;8.67;6.50;;;;;;;11.32;100.00;98676.00;5030871;28;20232;-62
2021/12/12 08:15:26;;;;;;;5.13;4.73;;;;;;;11.61;100.00;98696.31;5030582;28;20193;-62
2021/12/12 08:17:53;;;;;;;9.80;6.47;;;;;;;11.75;100.00;98702.63;5029818;28;20211;-62
2021/12/12 08:20:20;;;;;;;5.53;4.30;;;;;;;11.78;100.00;98707.72;5030878;28;20583;-63
2021/12/12 08:22:49;;;;;;;3.73;3.43;;;;;;;11.82;100.00;98704.06;5030721;28;20193;-63
2021/12/12 08:25:18;;;;;;;6.73;3.40;;;;;;;11.93;100.00;98717.41;5030111;28;20224;-63
2021/12/12 08:27:47;;;;;;;3.93;3.57;;;;;;;12.03;100.00;98723.84;5028572;28;20205;-66
2021/12/12 08:30:16;;;;;;;7.00;5.03;;;;;;;12.06;100.00;98722.88;5037394;28;20200;-68
2021/12/12 08:32:46;;;;;;;7.50;4.83;;;;;;;12.01;100.00;98717.88;5030406;28;20279;-69
2021/12/12 08:35:15;;;;;;;5.27;3.50;;;;;;;12.07;100.00;98721.97;5027266;28;20224;-69
2021/12/12 08:37:43;;;;;;;6.30;5.67;;;;;;;12.20;100.00;98734.28;5029613;28;20324;-69
2021/12/12 08:40:14;;;;;;;12.63;8.57;;;;;;;12.44;100.00;98740.06;5029868;28;20247;-68
2021/12/12 08:42:41;;;;;;;6.00;5.40;;;;;;;12.49;100.00;98732.91;5029151;28;20307;-60
2021/12/12 08:45:13;;;;;;;9.80;5.93;;;;;;;12.53;100.00;98734.41;5028279;28;20239;-62
2021/12/12 08:47:40;;;;;;;8.67;5.97;;;;;;;12.53;100.00;98738.78;5030349;28;20916;-61
2021/12/12 08:50:11;;;;;;;6.13;4.67;;;;;;;12.42;100.00;98741.06;5029274;28;20233;-62
2021/12/12 08:52:42;;;;;;;6.00;4.10;;;;;;;12.36;100.00;98745.66;5029980;28;20225;-63
2021/12/12 08:55:15;;;;;;;5.70;2.80;;;;;;;12.46;100.00;98751.25;5029659;28;20220;-65
2021/12/12 08:57:50;;;;;;;4.50;2.50;;;;;;;12.54;100.00;98756.09;5029429;28;20324;-67
2021/12/12 09:00:21;;;;;;;6.13;3.03;;;;;;;12.68;100.00;98753.66;5037437;28;20285;-67
2021/12/12 09:02:49;;;;;;;4.27;2.80;;;;;;;12.56;100.00;98728.22;5049940;28;20277;-66
2021/12/12 09:05:22;;;;;;;4.03;3.17;;;;;;;12.77;100.00;98757.56;5049797;28;20722;-66
2021/12/12 09:07:52;;;;;;;5.03;3.13;;;;;;;12.73;100.00;98749.06;5041427;28;20256;-62
2021/12/12 09:10:25;;;;;;;8.33;4.07;;;;;;;12.73;100.00;98752.53;5028608;28;20229;-66
2021/12/12 09:12:57;;;;;;;4.13;3.73;;;;;;;12.75;100.00;98754.22;5028626;28;20237;-66
2021/12/12 09:15:31;;;;;;;8.43;5.13;;;;;;;12.79;100.00;98750.50;5017340;28;20305;-66
2021/12/12 09:18:03;;;;;;;7.70;4.20;;;;;;;12.72;100.00;98756.03;5031052;28;20258;-66
2021/12/12 09:20:36;;;;;;;7.57;5.27;;;;;;;12.76;100.00;98755.88;5033581;28;20663;-66
2021/12/12 09:23:07;;;;;;;7.80;6.27;;;;;;;12.75;100.00;98749.00;5033788;28;20251;-66
2021/12/12 09:25:42;;;;;;;6.70;5.07;;;;;;;12.87;100.00;98763.97;5033683;28;20684;-65
2021/12/12 09:28:13;;;;;;;7.73;4.70;;;;;;;12.87;100.00;98766.59;5032827;28;20342;-64
2021/12/12 09:30:43;;;;;;;7.40;5.17;;;;;;;12.96;100.00;98773.97;5042746;28;20232;-65
2021/12/12 09:33:18;;;;;;;6.93;4.43;;;;;;;12.99;100.00;98764.22;5032192;28;20224;-66
2021/12/12 09:35:53;;;;;;;11.43;5.20;;;;;;;12.94;100.00;98740.19;5030704;28;20223;-66
2021/12/12 09:38:25;;;;;;;5.53;3.63;;;;;;;12.83;100.00;98744.25;5029977;28;20247;-66
2021/12/12 09:41:24;;;;;;;4.80;4.03;;;;;;;12.91;100.00;98766.38;5033111;28;20221;-66
2021/12/12 09:44:03;;;;;;;5.80;3.47;;;;;;;13.02;100.00;98774.50;4985296;28;20408;-66
2021/12/12 09:46:57;;;;;;;7.53;4.43;;;;;;;13.17;100.00;98766.84;5039081;28;20319;-66
2021/12/12 09:52:44;;;;;;;16.60;8.40;;;;;;;13.43;100.00;98764.56;5041155;28;20350;-63
2021/12/12 09:55:14;;;;;;;8.97;6.00;;;;;;;13.48;100.00;98766.94;5040933;28;20236;-62
2021/12/12 09:57:47;;;;;;;7.83;3.87;;;;;;;13.45;100.00;98772.31;5040089;28;20252;-62
2021/12/12 10:00:20;;;;;;;8.37;3.30;;;;;;;13.45;100.00;98777.53;5033537;28;20340;-62
2021/12/12 10:03:11;;;;;;;5.13;3.63;;;;;;;13.35;100.00;98778.94;5031183;28;20617;-62
2021/12/12 10:05:50;;;;;;;8.33;5.47;;;;;;;13.34;100.00;98780.69;5030429;28;20354;-62
2021/12/12 10:08:27;;;;;;;10.23;4.43;;;;;;;13.31;100.00;98786.09;5030220;28;20295;-63
2021/12/12 10:11:01;;;;;;;8.17;5.30;;;;;;;13.27;100.00;98775.88;5032339;28;20274;-62
2021/12/12 10:13:34;;;;;;;5.67;5.13;;;;;;;13.21;100.00;98779.63;5032458;28;20256;-62
2021/12/12 10:16:05;;;;;;;8.27;5.10;;;;;;;13.27;100.00;98781.09;5032056;28;20236;-67
2021/12/12 10:18:44;;;;;;;9.73;4.93;;;;;;;13.32;100.00;98782.53;5030644;28;20223;-65
2021/12/12 10:21:15;;;;;;;13.20;5.23;;;;;;;13.33;100.00;98780.75;5032222;28;20229;-65
2021/12/12 10:24:02;;;;;;;9.00;5.70;;;;;;;13.17;100.00;98759.88;5030354;28;20680;-66
2021/12/12 10:26:34;;;;;;;14.87;7.07;;;;;;;13.27;100.00;98783.69;5032647;28;20225;-66
2021/12/12 10:29:07;;;;;;;14.67;6.33;;;;;;;13.29;100.00;98787.06;5031104;28;20208;-66
2021/12/12 10:31:40;;;;;;;12.53;5.93;;;;;;;13.47;100.00;98769.63;5032941;28;20232;-66
2021/12/12 10:34:11;;;;;;;5.00;4.50;;;;;;;13.24;100.00;98735.19;5032609;28;20205;-67
2021/12/12 10:36:43;;;;;;;9.63;5.20;;;;;;;13.65;100.00;98786.94;5032738;28;20580;-67
2021/12/12 10:39:13;;;;;;;7.93;5.23;;;;;;;13.71;100.00;98783.97;5028771;28;20196;-67
2021/12/12 10:41:45;;;;;;;9.33;5.80;;;;;;;13.72;100.00;98785.66;5030524;28;20288;-67
2021/12/12 10:44:15;;;;;;;9.77;6.60;;;;;;;13.73;100.00;98783.00;5031684;28;20271;-67
2021/12/12 10:46:52;;;;;;;13.63;7.27;;;;;;;13.84;100.00;98785.03;5032420;28;20217;-67
2021/12/12 10:49:27;;;;;;;13.60;7.10;;;;;;;13.85;100.00;98772.81;5032221;28;20225;-63
2021/12/12 10:52:02;;;;;;;15.80;7.43;;;;;;;13.94;100.00;98777.53;5031012;28;20691;-65
2021/12/12 10:54:33;;;;;;;9.23;6.57;;;;;;;14.01;100.00;98777.09;5028597;28;20200;-66
2021/12/12 10:57:05;;;;;;;6.70;5.97;;;;;;;14.06;100.00;98779.47;5029587;28;20225;-65
2021/12/12 10:59:36;;;;;;;11.00;6.30;;;;;;;14.00;100.00;98775.41;5031124;28;20275;-64
2021/12/12 11:02:07;;;;;;;24.17;8.17;;;;;;;13.94;100.00;98783.59;5032065;28;20216;-64
2021/12/12 11:04:40;;;;;;;34.90;10.13;;;;;;;13.76;100.00;98771.56;5031867;28;20280;-64
2021/12/12 11:07:12;;;;;;;16.27;10.27;;;;;;;13.81;100.00;98791.25;5032074;28;20199;-67
2021/12/12 11:09:44;;;;;;;14.90;10.20;;;;;;;13.70;100.00;98777.94;5032124;28;20197;-66
2021/12/12 11:12:18;;;;;;;13.53;8.03;;;;;;;13.54;100.00;98773.63;5032443;28;20198;-65
2021/12/12 11:14:54;;;;;;;12.17;8.27;;;;;;;13.48;100.00;98782.59;5031929;28;20233;-66
2021/12/12 11:17:27;;;;;;;8.80;7.90;;;;;;;13.38;100.00;98789.19;5031926;28;20193;-68
2021/12/12 11:20:01;;;;;;;13.30;7.87;;;;;;;13.28;100.00;98790.59;5032109;28;20205;-68
2021/12/12 11:22:31;;;;;;;9.43;8.00;;;;;;;13.29;100.00;98792.28;5031974;28;20261;-67
2021/12/12 11:25:09;;;;;;;9.77;8.37;;;;;;;13.28;100.00;98781.03;5031804;28;20205;-68
2021/12/12 11:27:43;;;;;;;10.20;7.57;;;;;;;13.28;100.00;98804.47;5031796;28;20382;-68
2021/12/12 11:30:18;;;;;;;11.73;8.10;;;;;;;13.20;100.00;98804.03;5032174;28;20300;-68
2021/12/12 11:32:47;;;;;;;12.50;9.73;;;;;;;13.28;100.00;98806.25;5032099;28;20565;-68
2021/12/12 11:35:19;;;;;;;11.40;9.10;;;;;;;13.30;100.00;98813.06;5031946;28;20281;-68
2021/12/12 11:37:55;;;;;;;11.77;8.80;;;;;;;13.31;100.00;98806.09;5032057;28;20695;-68
2021/12/12 11:40:27;;;;;;;12.90;9.30;;;;;;;13.21;100.00;98810.06;5031758;28;20197;-68
2021/12/12 11:42:59;;;;;;;9.70;7.93;;;;;;;13.15;100.00;98803.41;5031716;28;20229;-69
2021/12/12 11:45:30;;;;;;;19.47;9.53;;;;;;;13.13;100.00;98801.75;5031554;28;20221;-68
2021/12/12 11:48:09;;;;;;;31.03;11.43;;;;;;;13.14;100.00;98798.22;5031998;28;20200;-68
2021/12/12 11:50:46;;;;;;;20.90;10.87;;;;;;;13.17;100.00;98798.97;5031361;28;20247;-69
2021/12/12 11:53:17;;;;;;;21.00;11.87;;;;;;;13.03;100.00;98777.94;5031513;28;20292;-69
2021/12/12 11:55:47;;;;;;;17.37;10.83;;;;;;;13.20;100.00;98800.59;5031373;28;20235;-68
2021/12/12 11:58:23;;;;;;;15.50;11.57;;;;;;;13.23;100.00;98790.81;5031597;28;20193;-68